createdAt,value
2022-09-03T00:00:44.623Z,18.76
2022-09-03T00:03:38.159Z,18.89
2022-09-03T00:06:33.751Z,18.92
2022-09-03T00:09:28.064Z,18.95
2022-09-03T00:12:24.862Z,18.99
2022-09-03T00:15:18.463Z,19.05
2022-09-03T00:18:09.858Z,19.01
2022-09-03T00:21:08.167Z,19.04
2022-09-03T00:23:58.765Z,19.09
2022-09-03T00:26:51.790Z,19.01
2022-09-03T00:29:47.228Z,19.05
2022-09-03T00:32:42.464Z,19.00
2022-09-03T00:35:34.101Z,19.04
2022-09-03T00:38:22.250Z,18.87
2022-09-03T00:41:22.097Z,18.95
2022-09-03T00:44:34.838Z,18.92
2022-09-03T00:47:29.638Z,18.89
2022-09-03T00:50:32.378Z,18.88
2022-09-03T00:53:31.905Z,18.82
2022-09-03T00:56:28.438Z,18.80
2022-09-03T00:59:29.346Z,18.86
2022-09-03T01:02:29.944Z,18.89
2022-09-03T01:05:34.386Z,18.91
2022-09-03T01:08:39.054Z,18.97
2022-09-03T01:11:35.076Z,18.95
2022-09-03T01:14:39.112Z,18.91
2022-09-03T01:17:37.946Z,18.92
2022-09-03T01:20:39.057Z,18.84
2022-09-03T01:23:49.580Z,18.79
2022-09-03T01:26:58.366Z,18.78
2022-09-03T01:29:55.538Z,18.74
2022-09-03T01:32:52.962Z,18.74
2022-09-03T01:35:48.063Z,18.74
2022-09-03T01:38:43.207Z,18.80
2022-09-03T01:42:03.271Z,18.78
2022-09-03T01:45:12.036Z,18.74
2022-09-03T01:48:11.102Z,18.83
2022-09-03T01:51:07.433Z,18.80
2022-09-03T01:54:40.022Z,18.89
2022-09-03T01:57:42.151Z,18.82
2022-09-03T02:00:34.087Z,18.83
2022-09-03T02:03:22.512Z,18.80
2022-09-03T02:06:12.172Z,18.84
2022-09-03T02:09:00.209Z,18.73
2022-09-03T02:11:57.586Z,18.76
2022-09-03T02:14:45.814Z,18.78
2022-09-03T02:17:36.979Z,18.72
2022-09-03T02:20:29.817Z,18.67
2022-09-03T02:23:18.107Z,18.66
2022-09-03T02:26:18.018Z,18.68
2022-09-03T02:29:06.472Z,18.64
2022-09-03T02:31:54.536Z,18.62
2022-09-03T02:34:44.098Z,18.62
2022-09-03T02:37:32.144Z,18.60
2022-09-03T02:40:20.162Z,18.60
2022-09-03T02:43:15.283Z,18.50
2022-09-03T02:46:06.144Z,18.48
2022-09-03T02:48:54.979Z,18.49
2022-09-03T02:51:45.715Z,18.47
2022-09-03T02:54:36.355Z,18.46
2022-09-03T02:57:27.601Z,18.45
2022-09-03T03:00:16.573Z,18.40
2022-09-03T03:03:04.845Z,18.46
2022-09-03T03:05:55.945Z,18.45
2022-09-03T03:08:45.544Z,18.40
2022-09-03T03:11:33.897Z,18.40
2022-09-03T03:14:22.679Z,18.38
2022-09-03T03:17:10.836Z,18.36
2022-09-03T03:19:58.829Z,18.23
2022-09-03T03:22:46.834Z,18.21
2022-09-03T03:25:38.386Z,18.15
2022-09-03T03:28:27.024Z,18.08
2022-09-03T03:31:16.710Z,18.01
2022-09-03T03:34:04.767Z,18.08
2022-09-03T03:36:52.870Z,18.09
2022-09-03T03:39:40.962Z,18.08
2022-09-03T03:42:30.319Z,18.02
2022-09-03T03:45:18.454Z,17.79
2022-09-03T03:48:06.692Z,17.96
2022-09-03T03:50:55.154Z,17.95
2022-09-03T03:53:43.238Z,18.03
2022-09-03T03:56:31.277Z,18.00
2022-09-03T03:59:20.650Z,18.01
2022-09-03T04:02:08.754Z,18.01
2022-09-03T04:04:56.780Z,18.07
2022-09-03T04:07:44.975Z,18.05
2022-09-03T04:10:33.493Z,18.07
2022-09-03T04:13:21.482Z,18.10
2022-09-03T04:16:12.951Z,18.09
2022-09-03T04:19:01.567Z,18.08
2022-09-03T04:21:49.524Z,18.08
2022-09-03T04:24:37.501Z,18.09
2022-09-03T04:27:25.813Z,18.09
2022-09-03T04:30:14.301Z,18.04
2022-09-03T04:33:03.670Z,18.12
2022-09-03T04:35:51.996Z,18.10
2022-09-03T04:38:42.046Z,17.90
2022-09-03T04:41:31.975Z,18.08
2022-09-03T04:44:19.971Z,18.03
2022-09-03T04:47:08.197Z,18.02
2022-09-03T04:49:57.585Z,18.08
2022-09-03T04:52:45.573Z,18.07
2022-09-03T04:55:35.193Z,18.06
2022-09-03T04:58:23.286Z,18.00
2022-09-03T05:01:12.710Z,18.02
2022-09-03T05:04:01.548Z,18.09
2022-09-03T05:06:50.867Z,18.11
2022-09-03T05:09:38.860Z,18.10
2022-09-03T05:12:27.596Z,18.07
2022-09-03T05:15:15.674Z,18.07
2022-09-03T05:18:04.475Z,18.00
2022-09-03T05:20:59.765Z,17.77
2022-09-03T05:23:50.767Z,17.50
2022-09-03T05:26:40.331Z,17.17
2022-09-03T05:29:28.341Z,16.88
2022-09-03T05:32:17.258Z,16.45
2022-09-03T05:35:06.516Z,16.14
2022-09-03T05:37:56.054Z,15.91
2022-09-03T05:40:45.526Z,15.82
2022-09-03T05:43:34.537Z,15.72
2022-09-03T05:46:30.121Z,15.72
2022-09-03T05:49:18.770Z,15.71
2022-09-03T05:52:06.838Z,15.65
2022-09-03T05:54:54.843Z,15.70
2022-09-03T05:57:46.035Z,15.70
2022-09-03T06:00:34.103Z,15.70
2022-09-03T06:03:22.237Z,15.75
2022-09-03T06:06:13.908Z,15.84
2022-09-03T06:09:04.346Z,15.97
2022-09-03T06:11:53.820Z,16.05
2022-09-03T06:14:43.623Z,16.21
2022-09-03T06:17:31.591Z,16.44
2022-09-03T06:20:20.136Z,16.54
2022-09-03T06:23:08.129Z,16.58
2022-09-03T06:26:05.524Z,16.79
2022-09-03T06:28:55.612Z,16.85
2022-09-03T06:31:45.045Z,17.01
2022-09-03T06:34:33.092Z,17.07
2022-09-03T06:37:21.130Z,17.40
2022-09-03T06:40:14.102Z,17.62
2022-09-03T06:43:03.150Z,17.97
2022-09-03T06:45:55.850Z,18.28
2022-09-03T06:48:45.909Z,18.37
2022-09-03T06:51:34.356Z,18.45
2022-09-03T06:54:23.104Z,18.30
2022-09-03T06:57:11.070Z,18.14
2022-09-03T06:59:59.161Z,18.16
2022-09-03T07:02:48.743Z,18.18
2022-09-03T07:05:38.804Z,18.10
2022-09-03T07:08:26.882Z,17.74
2022-09-03T07:11:16.841Z,17.40
2022-09-03T07:14:05.974Z,16.97
2022-09-03T07:16:53.947Z,16.64
2022-09-03T07:19:41.956Z,16.53
2022-09-03T07:22:31.688Z,16.40
2022-09-03T07:25:19.799Z,16.32
2022-09-03T07:28:07.840Z,16.28
2022-09-03T07:31:01.859Z,16.23
2022-09-03T07:33:49.864Z,16.29
2022-09-03T07:36:40.077Z,16.37
2022-09-03T07:39:30.754Z,16.37
2022-09-03T07:42:18.853Z,16.27
2022-09-03T07:45:10.786Z,16.24
2022-09-03T07:47:59.043Z,16.15
2022-09-03T07:50:48.054Z,16.08
2022-09-03T07:53:36.953Z,16.06
2022-09-03T07:56:27.361Z,16.07
2022-09-03T07:59:15.482Z,16.21
2022-09-03T08:02:06.051Z,16.05
2022-09-03T08:04:54.042Z,16.13
2022-09-03T08:07:42.031Z,16.18
2022-09-03T08:10:31.032Z,16.24
2022-09-03T08:13:20.383Z,16.26
2022-09-03T08:16:09.423Z,16.27
2022-09-03T08:18:57.799Z,16.32
2022-09-03T08:21:45.946Z,16.40
2022-09-03T08:24:34.269Z,16.38
2022-09-03T08:27:26.105Z,16.31
2022-09-03T08:30:15.542Z,16.30
2022-09-03T08:33:04.833Z,16.09
2022-09-03T08:35:54.734Z,16.28
2022-09-03T08:38:45.423Z,16.45
2022-09-03T08:41:47.410Z,16.52
2022-09-03T08:44:47.043Z,16.56
2022-09-03T08:47:41.792Z,16.57
2022-09-03T08:50:32.786Z,16.57
2022-09-03T08:53:25.111Z,16.66
2022-09-03T08:56:20.104Z,16.65
2022-09-03T08:59:09.379Z,16.73
2022-09-03T09:02:07.032Z,16.81
2022-09-03T09:05:06.270Z,16.96
2022-09-03T09:08:06.874Z,17.03
2022-09-03T09:11:03.405Z,17.09
2022-09-03T09:14:00.104Z,17.02
2022-09-03T09:16:57.204Z,17.11
2022-09-03T09:19:55.559Z,17.11
2022-09-03T09:22:49.405Z,17.13
2022-09-03T09:25:46.059Z,17.23
2022-09-03T09:28:37.667Z,17.45
2022-09-03T09:31:26.597Z,17.56
2022-09-03T09:34:15.528Z,17.61
2022-09-03T09:37:05.549Z,17.56
2022-09-03T09:40:00.630Z,17.58
2022-09-03T09:42:48.716Z,17.62
2022-09-03T09:45:38.104Z,17.68
2022-09-03T09:48:31.255Z,17.72
2022-09-03T09:51:22.433Z,17.65
2022-09-03T09:54:18.887Z,17.45
2022-09-03T09:57:17.770Z,17.74
2022-09-03T10:00:10.441Z,18.16
2022-09-03T10:03:02.001Z,18.61
2022-09-03T10:06:02.080Z,19.00
2022-09-03T10:08:50.035Z,19.39
2022-09-03T10:11:40.417Z,19.46
2022-09-03T10:14:35.274Z,19.58
2022-09-03T10:17:37.114Z,19.82
2022-09-03T10:20:33.622Z,20.14
2022-09-03T10:23:24.746Z,20.21
2022-09-03T10:26:16.841Z,20.18
2022-09-03T10:29:08.640Z,19.99
2022-09-03T10:32:11.676Z,20.10
2022-09-03T10:35:12.628Z,20.23
2022-09-03T10:38:10.639Z,20.41
2022-09-03T10:41:09.988Z,20.77
2022-09-03T10:44:19.293Z,20.79
2022-09-03T10:47:23.570Z,20.70
2022-09-03T10:50:16.677Z,20.63
2022-09-03T10:53:11.993Z,20.20
2022-09-03T10:56:05.666Z,20.04
2022-09-03T10:59:11.717Z,20.10
2022-09-03T11:02:15.278Z,20.35
2022-09-03T11:05:10.078Z,20.80
2022-09-03T11:08:03.195Z,21.15
2022-09-03T11:10:56.086Z,21.24
2022-09-03T11:13:49.401Z,21.48
2022-09-03T11:16:43.402Z,21.58
2022-09-03T11:19:36.972Z,22.05
2022-09-03T11:22:29.714Z,21.97
2022-09-03T11:25:21.831Z,22.22
2022-09-03T11:28:23.037Z,22.39
2022-09-03T11:31:23.879Z,22.80
2022-09-03T11:34:19.625Z,22.76
2022-09-03T11:37:20.639Z,22.59
2022-09-03T11:40:16.777Z,22.98
2022-09-03T11:43:13.469Z,23.33
2022-09-03T11:46:11.873Z,23.32
2022-09-03T11:49:12.015Z,23.10
2022-09-03T11:52:02.223Z,22.87
2022-09-03T11:54:50.435Z,22.91
2022-09-03T11:57:43.697Z,23.18
2022-09-03T12:00:31.768Z,24.39
2022-09-03T12:03:26.530Z,25.41
2022-09-03T12:06:40.413Z,25.66
2022-09-03T12:09:48.818Z,25.87
2022-09-03T12:12:53.823Z,26.30
2022-09-03T12:16:26.384Z,26.45
2022-09-03T12:19:26.146Z,26.35
2022-09-03T12:22:15.688Z,25.94
2022-09-03T12:25:11.940Z,26.15
2022-09-03T12:28:04.866Z,26.17
2022-09-03T12:30:54.216Z,25.70
2022-09-03T12:33:42.941Z,25.53
2022-09-03T12:36:39.572Z,25.53
2022-09-03T12:42:37.487Z,25.88
2022-09-03T12:46:09.937Z,26.37
2022-09-03T12:48:35.667Z,26.39
2022-09-03T12:54:32.970Z,26.46
2022-09-03T12:57:24.723Z,26.76
2022-09-03T13:00:16.411Z,26.30
2022-09-03T13:03:09.087Z,25.95
2022-09-03T13:06:00.461Z,25.73
2022-09-03T13:08:51.533Z,25.29
2022-09-03T13:11:39.751Z,24.79
2022-09-03T13:14:28.393Z,25.11
2022-09-03T13:17:40.559Z,24.75
2022-09-03T13:20:42.243Z,24.82
2022-09-03T13:23:43.869Z,24.95
2022-09-03T13:26:44.333Z,25.51
2022-09-03T13:29:41.032Z,25.84
2022-09-03T13:32:38.100Z,26.26
2022-09-03T13:35:32.289Z,25.31
2022-09-03T13:38:29.004Z,24.59
2022-09-03T13:41:22.120Z,24.03
2022-09-03T13:44:15.910Z,24.31
2022-09-03T13:47:11.634Z,25.10
2022-09-03T13:50:22.912Z,25.63
2022-09-03T13:53:20.365Z,25.80
2022-09-03T13:56:27.372Z,25.47
2022-09-03T13:59:24.823Z,24.91
2022-09-03T14:02:24.016Z,24.74
2022-09-03T14:05:17.123Z,25.18
2022-09-03T14:08:14.634Z,25.75
2022-09-03T14:11:22.680Z,25.48
2022-09-03T14:14:21.503Z,24.82
2022-09-03T14:17:14.670Z,24.79
2022-09-03T14:20:07.852Z,24.95
2022-09-03T14:23:04.151Z,25.64
2022-09-03T14:25:55.681Z,25.98
2022-09-03T14:28:49.322Z,26.02
2022-09-03T14:32:01.054Z,25.62
2022-09-03T14:35:07.744Z,24.85
2022-09-03T14:38:21.590Z,24.62
2022-09-03T14:41:29.664Z,24.62
2022-09-03T14:44:53.410Z,24.28
2022-09-03T14:47:58.118Z,24.50
2022-09-03T14:50:59.572Z,24.48
2022-09-03T14:54:28.642Z,24.40
2022-09-03T14:57:33.043Z,24.35
2022-09-03T15:00:26.090Z,24.83
2022-09-03T15:03:43.314Z,24.84
2022-09-03T15:06:47.395Z,24.56
2022-09-03T15:09:41.967Z,24.27
2022-09-03T15:12:36.785Z,24.03
2022-09-03T15:15:32.414Z,23.70
2022-09-03T15:18:31.672Z,23.48
2022-09-03T15:21:27.277Z,23.04
2022-09-03T15:24:21.830Z,22.96
2022-09-03T15:27:23.131Z,22.86
2022-09-03T15:30:13.707Z,22.82
2022-09-03T15:33:11.996Z,22.86
2022-09-03T15:36:16.198Z,22.82
2022-09-03T15:39:10.337Z,22.71
2022-09-03T15:42:05.746Z,22.64
2022-09-03T15:44:57.318Z,22.81
2022-09-03T15:47:54.517Z,22.83
2022-09-03T15:50:53.838Z,22.84
2022-09-03T15:53:52.663Z,22.83
2022-09-03T15:56:47.204Z,22.58
2022-09-03T15:59:41.505Z,22.73
2022-09-03T16:02:40.972Z,22.78
2022-09-03T16:05:40.258Z,22.70
2022-09-03T16:08:39.266Z,22.76
2022-09-03T16:11:38.032Z,22.68
2022-09-03T16:14:32.096Z,22.68
2022-09-03T16:17:27.868Z,22.55
2022-09-03T16:20:20.340Z,22.38
2022-09-03T16:23:14.055Z,22.33
2022-09-03T16:26:06.221Z,22.11
2022-09-03T16:29:00.824Z,21.90
2022-09-03T16:32:06.600Z,21.87
2022-09-03T16:35:07.206Z,21.83
2022-09-03T16:38:24.010Z,21.74
2022-09-03T16:41:23.354Z,21.68
2022-09-03T16:44:21.699Z,21.42
2022-09-03T16:47:18.572Z,21.30
2022-09-03T16:50:19.385Z,21.18
2022-09-03T16:53:14.772Z,21.17
2022-09-03T16:56:34.144Z,21.09
2022-09-03T16:59:48.267Z,21.03
2022-09-03T17:02:54.768Z,20.98
2022-09-03T17:06:06.163Z,21.07
2022-09-03T17:09:03.557Z,20.87
2022-09-03T17:12:00.376Z,21.00
2022-09-03T17:15:06.734Z,20.90
2022-09-03T17:18:25.909Z,20.86
2022-09-03T17:21:23.899Z,20.75
2022-09-03T17:24:33.989Z,20.71
2022-09-03T17:27:46.339Z,20.73
2022-09-03T17:30:44.642Z,20.79
2022-09-03T17:33:49.800Z,20.82
2022-09-03T17:36:38.871Z,20.73
2022-09-03T17:39:49.249Z,20.78
2022-09-03T17:42:50.405Z,20.81
2022-09-03T17:45:48.014Z,20.85
2022-09-03T17:48:59.267Z,20.81
2022-09-03T17:51:52.927Z,20.90
2022-09-03T17:54:45.411Z,20.91
2022-09-03T17:57:41.327Z,20.88
2022-09-03T18:00:37.557Z,20.78
2022-09-03T18:03:32.870Z,20.64
2022-09-03T18:06:28.920Z,20.44
2022-09-03T18:09:28.541Z,20.32
2022-09-03T18:12:33.564Z,20.35
2022-09-03T18:15:26.581Z,20.22
2022-09-03T18:18:21.803Z,20.12
2022-09-03T18:21:33.379Z,20.03
2022-09-03T18:24:51.081Z,20.09
2022-09-03T18:28:01.015Z,20.01
2022-09-03T18:31:06.427Z,19.87
2022-09-03T18:34:12.032Z,19.74
2022-09-03T18:37:19.030Z,19.65
2022-09-03T18:40:28.354Z,19.48
2022-09-03T18:43:42.702Z,19.36
2022-09-03T18:50:38.223Z,19.08
2022-09-03T18:53:54.227Z,18.96
2022-09-03T18:57:06.150Z,18.82
2022-09-03T19:00:28.069Z,18.75
2022-09-03T19:03:54.038Z,18.68
2022-09-03T19:07:07.247Z,18.64
2022-09-03T19:10:21.202Z,18.56
2022-09-03T19:13:42.795Z,18.54
2022-09-03T19:17:01.872Z,18.50
2022-09-03T19:20:21.065Z,18.40
2022-09-03T19:23:26.836Z,18.26
2022-09-03T19:26:44.569Z,18.18
2022-09-03T19:30:07.018Z,18.13
2022-09-03T19:33:29.714Z,18.07
2022-09-03T19:36:47.463Z,18.02
2022-09-03T19:40:08.273Z,17.84
2022-09-03T19:43:20.726Z,17.78
2022-09-03T19:46:37.517Z,17.70
2022-09-03T19:49:55.898Z,17.64
2022-09-03T19:53:07.795Z,17.34
2022-09-03T19:56:15.427Z,17.31
2022-09-03T19:59:29.926Z,17.20
2022-09-03T20:02:35.683Z,17.18
2022-09-03T20:05:41.841Z,17.12
2022-09-03T20:08:49.609Z,16.96
2022-09-03T20:11:40.291Z,16.92
2022-09-03T20:14:34.197Z,16.94
2022-09-03T20:17:33.856Z,16.89
2022-09-03T20:20:32.343Z,16.78
2022-09-03T20:23:25.938Z,16.67
2022-09-03T20:26:28.829Z,16.64
2022-09-03T20:29:47.979Z,16.59
2022-09-03T20:33:05.672Z,16.53
2022-09-03T20:36:06.953Z,16.50
2022-09-03T20:39:29.069Z,16.51
2022-09-03T20:42:59.989Z,16.45
2022-09-03T20:46:06.852Z,16.43
2022-09-03T20:49:04.355Z,16.39
2022-09-03T20:51:58.427Z,16.35
2022-09-03T20:54:53.334Z,16.37
2022-09-03T20:57:49.953Z,16.37
2022-09-03T21:00:47.993Z,16.39
2022-09-03T21:03:49.944Z,16.37
2022-09-03T21:06:43.850Z,16.34
2022-09-03T21:09:40.986Z,16.28
2022-09-03T21:12:39.093Z,16.28
2022-09-03T21:15:38.112Z,16.27
2022-09-03T21:18:34.730Z,16.22
2022-09-03T21:21:36.044Z,16.15
2022-09-03T21:24:32.059Z,16.17
2022-09-03T21:27:24.148Z,16.15
2022-09-03T21:30:15.845Z,16.10
2022-09-03T21:33:07.754Z,16.09
2022-09-03T21:36:04.318Z,16.12
2022-09-03T21:39:06.738Z,16.11
2022-09-03T21:42:01.486Z,16.05
2022-09-03T21:44:56.967Z,16.04
2022-09-03T21:47:52.211Z,16.04
2022-09-03T21:50:49.566Z,15.98
2022-09-03T21:53:44.194Z,15.98
2022-09-03T21:56:50.394Z,15.99
2022-09-03T22:00:04.010Z,16.02
2022-09-03T22:03:01.171Z,15.93
2022-09-03T22:05:55.291Z,15.68
2022-09-03T22:08:49.827Z,15.87
2022-09-03T22:11:45.827Z,15.91
2022-09-03T22:14:40.338Z,15.99
2022-09-03T22:17:36.190Z,16.05
2022-09-03T22:20:26.216Z,16.05
2022-09-03T22:23:21.063Z,16.14
2022-09-03T22:26:23.939Z,16.17
2022-09-03T22:29:19.632Z,16.22
2022-09-03T22:32:24.827Z,16.29
2022-09-03T22:35:28.203Z,16.31
2022-09-03T22:38:40.430Z,16.32
2022-09-03T22:41:54.636Z,16.32
2022-09-03T22:45:13.740Z,16.24
2022-09-03T22:48:12.864Z,16.19
2022-09-03T22:51:03.274Z,16.17
2022-09-03T22:54:05.723Z,16.14
2022-09-03T22:56:55.224Z,16.18
2022-09-03T22:59:48.660Z,16.15
2022-09-03T23:02:39.187Z,16.02
2022-09-03T23:05:43.756Z,15.99
2022-09-03T23:08:36.420Z,15.93
2022-09-03T23:11:27.629Z,15.89
2022-09-03T23:14:22.280Z,15.89
2022-09-03T23:17:14.058Z,15.87
2022-09-03T23:23:00.392Z,15.86
2022-09-03T23:25:53.804Z,15.85
2022-09-03T23:28:45.911Z,15.82
2022-09-03T23:31:35.500Z,15.77
2022-09-03T23:34:23.718Z,15.74
2022-09-03T23:37:33.491Z,15.71
2022-09-03T23:40:41.284Z,15.68
2022-09-03T23:44:02.798Z,15.61
2022-09-03T23:47:01.460Z,15.67
2022-09-03T23:49:59.034Z,15.63
2022-09-03T23:53:03.799Z,15.59
2022-09-03T23:56:08.016Z,15.56
2022-09-03T23:59:09.455Z,15.50
